sensor_id;sensor_type;location;lat;lon;timestamp;temperature;humidity
11934;DHT22;6026;48.784;9.198;2023-03-01T00:01:17;-0.80;99.90
11934;DHT22;6026;48.784;9.198;2023-03-01T00:03:43;-0.80;99.90
11934;DHT22;6026;48.784;9.198;2023-03-01T00:06:08;-0.90;99.90
11934;DHT22;6026;48.784;9.198;2023-03-01T00:08:35;-0.90;99.90
11934;DHT22;6026;48.784;9.198;2023-03-01T00:11:24;-0.90;99.90
11934;DHT22;6026;48.784;9.198;2023-03-01T00:13:52;-0.90;99.90
11934;DHT22;6026;48.784;9.198;2023-03-01T00:16:30;-0.90;99.90
11934;DHT22;6026;48.784;9.198;2023-03-01T00:18:57;-0.90;99.90
11934;DHT22;6026;48.784;9.198;2023-03-01T00:21:23;-0.90;99.90
11934;DHT22;6026;48.784;9.198;2023-03-01T00:23:49;-0.90;99.90
11934;DHT22;6026;48.784;9.198;2023-03-01T00:26:20;-0.90;99.90
11934;DHT22;6026;48.784;9.198;2023-03-01T00:28:47;-1.00;99.90
11934;DHT22;6026;48.784;9.198;2023-03-01T00:31:20;-0.90;99.90
11934;DHT22;6026;48.784;9.198;2023-03-01T00:33:47;-1.00;99.90
11934;DHT22;6026;48.784;9.198;2023-03-01T00:36:14;-1.00;99.90
11934;DHT22;6026;48.784;9.198;2023-03-01T00:38:42;-1.00;99.90
11934;DHT22;6026;48.784;9.198;2023-03-01T00:41:10;-1.00;99.90
11934;DHT22;6026;48.784;9.198;2023-03-01T00:43:36;-1.00;99.90
11934;DHT22;6026;48.784;9.198;2023-03-01T00:46:10;-1.00;99.90
11934;DHT22;6026;48.784;9.198;2023-03-01T00:48:36;-1.00;99.90
11934;DHT22;6026;48.784;9.198;2023-03-01T00:53:35;-1.10;99.90
11934;DHT22;6026;48.784;9.198;2023-03-01T00:56:02;-1.10;99.90
11934;DHT22;6026;48.784;9.198;2023-03-01T00:58:28;-1.10;99.90
11934;DHT22;6026;48.784;9.198;2023-03-01T01:00:54;-1.20;99.90
11934;DHT22;6026;48.784;9.198;2023-03-01T01:03:20;-1.20;99.90
11934;DHT22;6026;48.784;9.198;2023-03-01T01:05:45;-1.20;99.90
11934;DHT22;6026;48.784;9.198;2023-03-01T01:08:11;-1.20;99.90
11934;DHT22;6026;48.784;9.198;2023-03-01T01:10:37;-1.20;99.90
11934;DHT22;6026;48.784;9.198;2023-03-01T01:13:03;-1.20;99.90
11934;DHT22;6026;48.784;9.198;2023-03-01T01:15:29;-1.20;99.90
11934;DHT22;6026;48.784;9.198;2023-03-01T01:17:58;-1.20;99.90
11934;DHT22;6026;48.784;9.198;2023-03-01T01:20:23;-1.20;99.90
11934;DHT22;6026;48.784;9.198;2023-03-01T01:22:49;-1.30;99.90
11934;DHT22;6026;48.784;9.198;2023-03-01T01:25:14;-1.20;99.90
11934;DHT22;6026;48.784;9.198;2023-03-01T01:27:40;-1.20;99.90
11934;DHT22;6026;48.784;9.198;2023-03-01T01:30:06;-1.20;99.90
11934;DHT22;6026;48.784;9.198;2023-03-01T01:32:32;-1.30;99.90
11934;DHT22;6026;48.784;9.198;2023-03-01T01:34:57;-1.30;99.90
11934;DHT22;6026;48.784;9.198;2023-03-01T01:37:23;-1.30;99.90
11934;DHT22;6026;48.784;9.198;2023-03-01T01:39:59;-1.30;99.90
11934;DHT22;6026;48.784;9.198;2023-03-01T01:42:26;-1.30;99.90
11934;DHT22;6026;48.784;9.198;2023-03-01T01:48:06;-1.30;99.90
11934;DHT22;6026;48.784;9.198;2023-03-01T01:50:39;-1.40;99.90
11934;DHT22;6026;48.784;9.198;2023-03-01T01:53:17;-1.40;99.90
11934;DHT22;6026;48.784;9.198;2023-03-01T01:55:51;-1.30;99.90
11934;DHT22;6026;48.784;9.198;2023-03-01T01:58:20;-1.30;99.90
11934;DHT22;6026;48.784;9.198;2023-03-01T02:00:47;-1.30;99.90
11934;DHT22;6026;48.784;9.198;2023-03-01T02:03:15;-1.30;99.90
11934;DHT22;6026;48.784;9.198;2023-03-01T02:08:19;-1.20;99.90
11934;DHT22;6026;48.784;9.198;2023-03-01T02:10:45;-1.20;99.90
11934;DHT22;6026;48.784;9.198;2023-03-01T02:13:12;-1.10;99.90
11934;DHT22;6026;48.784;9.198;2023-03-01T02:15:39;-1.00;99.90
11934;DHT22;6026;48.784;9.198;2023-03-01T02:18:06;-1.00;99.90
11934;DHT22;6026;48.784;9.198;2023-03-01T02:21:02;-1.00;99.90
11934;DHT22;6026;48.784;9.198;2023-03-01T02:23:29;-0.90;99.90
11934;DHT22;6026;48.784;9.198;2023-03-01T02:26:01;-0.90;99.90
11934;DHT22;6026;48.784;9.198;2023-03-01T02:28:32;-0.90;99.90
11934;DHT22;6026;48.784;9.198;2023-03-01T02:30:58;-0.90;99.90
11934;DHT22;6026;48.784;9.198;2023-03-01T02:33:43;-0.80;99.90
11934;DHT22;6026;48.784;9.198;2023-03-01T02:36:12;-0.70;99.90
11934;DHT22;6026;48.784;9.198;2023-03-01T02:38:41;-0.70;99.90
11934;DHT22;6026;48.784;9.198;2023-03-01T02:41:08;-0.70;99.90
11934;DHT22;6026;48.784;9.198;2023-03-01T02:43:34;-0.70;99.90
11934;DHT22;6026;48.784;9.198;2023-03-01T02:46:07;-0.70;99.90
11934;DHT22;6026;48.784;9.198;2023-03-01T02:48:56;-0.70;99.90
11934;DHT22;6026;48.784;9.198;2023-03-01T02:54:29;-0.70;99.90
11934;DHT22;6026;48.784;9.198;2023-03-01T02:56:59;-0.60;99.90
11934;DHT22;6026;48.784;9.198;2023-03-01T02:59:27;-0.60;99.90
11934;DHT22;6026;48.784;9.198;2023-03-01T03:01:53;-0.60;99.90
11934;DHT22;6026;48.784;9.198;2023-03-01T03:04:19;-0.60;99.90
11934;DHT22;6026;48.784;9.198;2023-03-01T03:06:47;-0.50;99.90
11934;DHT22;6026;48.784;9.198;2023-03-01T03:09:14;-0.50;99.90
11934;DHT22;6026;48.784;9.198;2023-03-01T03:11:40;-0.50;99.90
11934;DHT22;6026;48.784;9.198;2023-03-01T03:14:09;-0.50;99.90
11934;DHT22;6026;48.784;9.198;2023-03-01T03:16:49;-0.50;99.90
11934;DHT22;6026;48.784;9.198;2023-03-01T03:19:16;-0.50;99.90
11934;DHT22;6026;48.784;9.198;2023-03-01T03:21:42;-0.50;99.90
11934;DHT22;6026;48.784;9.198;2023-03-01T03:24:08;-0.40;99.90
11934;DHT22;6026;48.784;9.198;2023-03-01T03:26:34;-0.40;99.90
11934;DHT22;6026;48.784;9.198;2023-03-01T03:29:00;-0.40;99.90
11934;DHT22;6026;48.784;9.198;2023-03-01T03:31:26;-0.40;99.90
11934;DHT22;6026;48.784;9.198;2023-03-01T03:33:52;-0.40;99.90
11934;DHT22;6026;48.784;9.198;2023-03-01T03:36:21;-0.40;99.90
11934;DHT22;6026;48.784;9.198;2023-03-01T03:38:47;-0.40;99.90
11934;DHT22;6026;48.784;9.198;2023-03-01T03:41:14;-0.40;99.90
11934;DHT22;6026;48.784;9.198;2023-03-01T03:43:41;-0.30;99.90
11934;DHT22;6026;48.784;9.198;2023-03-01T03:46:09;-0.30;99.90
11934;DHT22;6026;48.784;9.198;2023-03-01T03:48:40;-0.30;99.90
11934;DHT22;6026;48.784;9.198;2023-03-01T03:51:07;-0.30;99.90
11934;DHT22;6026;48.784;9.198;2023-03-01T03:53:33;-0.30;99.90
11934;DHT22;6026;48.784;9.198;2023-03-01T03:55:59;-0.20;99.90
11934;DHT22;6026;48.784;9.198;2023-03-01T03:58:25;-0.20;99.90
11934;DHT22;6026;48.784;9.198;2023-03-01T04:00:56;-0.20;99.90
11934;DHT22;6026;48.784;9.198;2023-03-01T04:03:22;-0.10;99.90
11934;DHT22;6026;48.784;9.198;2023-03-01T04:05:49;-0.10;99.90
11934;DHT22;6026;48.784;9.198;2023-03-01T04:08:16;-0.10;99.90
11934;DHT22;6026;48.784;9.198;2023-03-01T04:10:46;-0.10;99.90
11934;DHT22;6026;48.784;9.198;2023-03-01T04:13:15;-0.10;99.90
11934;DHT22;6026;48.784;9.198;2023-03-01T04:15:42;0.00;99.90
11934;DHT22;6026;48.784;9.198;2023-03-01T04:18:15;0.00;99.90
11934;DHT22;6026;48.784;9.198;2023-03-01T04:20:41;-0.10;99.90
11934;DHT22;6026;48.784;9.198;2023-03-01T04:23:10;-0.10;99.90
11934;DHT22;6026;48.784;9.198;2023-03-01T04:25:54;-0.10;99.90
11934;DHT22;6026;48.784;9.198;2023-03-01T04:28:28;0.00;99.90
11934;DHT22;6026;48.784;9.198;2023-03-01T04:30:56;-0.10;99.90
11934;DHT22;6026;48.784;9.198;2023-03-01T04:33:23;-0.10;99.90
11934;DHT22;6026;48.784;9.198;2023-03-01T04:35:49;0.00;99.90
11934;DHT22;6026;48.784;9.198;2023-03-01T04:38:15;0.00;99.90
11934;DHT22;6026;48.784;9.198;2023-03-01T04:40:41;0.00;99.90
11934;DHT22;6026;48.784;9.198;2023-03-01T04:43:09;0.10;99.90
11934;DHT22;6026;48.784;9.198;2023-03-01T04:45:34;0.00;99.90
11934;DHT22;6026;48.784;9.198;2023-03-01T04:48:00;0.10;99.90
11934;DHT22;6026;48.784;9.198;2023-03-01T04:50:26;0.00;99.90
11934;DHT22;6026;48.784;9.198;2023-03-01T04:52:52;0.00;99.90
11934;DHT22;6026;48.784;9.198;2023-03-01T04:55:18;0.00;99.90
11934;DHT22;6026;48.784;9.198;2023-03-01T04:57:44;0.00;99.90
11934;DHT22;6026;48.784;9.198;2023-03-01T05:00:12;0.10;99.90
11934;DHT22;6026;48.784;9.198;2023-03-01T05:02:55;0.10;99.90
11934;DHT22;6026;48.784;9.198;2023-03-01T05:07:58;0.10;99.90
11934;DHT22;6026;48.784;9.198;2023-03-01T05:10:25;0.10;99.90
11934;DHT22;6026;48.784;9.198;2023-03-01T05:12:51;0.10;99.90
11934;DHT22;6026;48.784;9.198;2023-03-01T05:15:20;0.20;99.90
11934;DHT22;6026;48.784;9.198;2023-03-01T05:17:47;0.20;99.90
11934;DHT22;6026;48.784;9.198;2023-03-01T05:20:13;0.20;99.90
11934;DHT22;6026;48.784;9.198;2023-03-01T05:22:39;0.20;99.90
11934;DHT22;6026;48.784;9.198;2023-03-01T05:25:05;0.20;99.90
11934;DHT22;6026;48.784;9.198;2023-03-01T05:27:31;0.20;99.90
11934;DHT22;6026;48.784;9.198;2023-03-01T05:29:57;0.20;99.90
11934;DHT22;6026;48.784;9.198;2023-03-01T05:32:23;0.20;99.90
11934;DHT22;6026;48.784;9.198;2023-03-01T05:34:48;0.20;99.90
11934;DHT22;6026;48.784;9.198;2023-03-01T05:37:14;0.10;99.90
11934;DHT22;6026;48.784;9.198;2023-03-01T05:39:40;0.20;99.90
11934;DHT22;6026;48.784;9.198;2023-03-01T05:42:11;0.20;99.90
11934;DHT22;6026;48.784;9.198;2023-03-01T05:44:36;0.20;99.90
11934;DHT22;6026;48.784;9.198;2023-03-01T05:47:02;0.20;99.90
11934;DHT22;6026;48.784;9.198;2023-03-01T05:49:28;0.20;99.90
11934;DHT22;6026;48.784;9.198;2023-03-01T05:51:54;0.20;99.90
11934;DHT22;6026;48.784;9.198;2023-03-01T05:54:21;0.20;99.90
11934;DHT22;6026;48.784;9.198;2023-03-01T05:56:47;0.20;99.90
11934;DHT22;6026;48.784;9.198;2023-03-01T05:59:12;0.20;99.90
11934;DHT22;6026;48.784;9.198;2023-03-01T06:01:39;0.10;99.90
11934;DHT22;6026;48.784;9.198;2023-03-01T06:04:04;0.10;99.90
11934;DHT22;6026;48.784;9.198;2023-03-01T06:06:34;0.10;99.90
11934;DHT22;6026;48.784;9.198;2023-03-01T06:09:03;0.10;99.90
11934;DHT22;6026;48.784;9.198;2023-03-01T06:11:28;0.00;99.90
11934;DHT22;6026;48.784;9.198;2023-03-01T06:13:54;0.00;99.90
11934;DHT22;6026;48.784;9.198;2023-03-01T06:16:19;0.00;99.90
11934;DHT22;6026;48.784;9.198;2023-03-01T06:18:45;0.00;99.90
11934;DHT22;6026;48.784;9.198;2023-03-01T06:21:10;0.00;99.90
11934;DHT22;6026;48.784;9.198;2023-03-01T06:23:36;0.10;99.90
11934;DHT22;6026;48.784;9.198;2023-03-01T06:26:06;0.10;99.90
11934;DHT22;6026;48.784;9.198;2023-03-01T06:28:32;0.10;99.90
11934;DHT22;6026;48.784;9.198;2023-03-01T06:30:58;0.10;99.90
11934;DHT22;6026;48.784;9.198;2023-03-01T06:33:23;0.10;99.90
11934;DHT22;6026;48.784;9.198;2023-03-01T06:35:50;0.10;99.90
11934;DHT22;6026;48.784;9.198;2023-03-01T06:38:16;0.10;99.90
11934;DHT22;6026;48.784;9.198;2023-03-01T06:40:44;0.10;99.90
11934;DHT22;6026;48.784;9.198;2023-03-01T06:43:10;0.10;99.90
11934;DHT22;6026;48.784;9.198;2023-03-01T06:45:36;0.10;99.90
11934;DHT22;6026;48.784;9.198;2023-03-01T06:48:07;0.30;99.90
11934;DHT22;6026;48.784;9.198;2023-03-01T06:50:34;0.30;99.90
11934;DHT22;6026;48.784;9.198;2023-03-01T06:52:59;0.40;99.90
11934;DHT22;6026;48.784;9.198;2023-03-01T06:55:25;0.60;99.90
11934;DHT22;6026;48.784;9.198;2023-03-01T06:57:58;0.80;99.90
11934;DHT22;6026;48.784;9.198;2023-03-01T07:00:25;1.00;99.90
11934;DHT22;6026;48.784;9.198;2023-03-01T07:02:51;1.20;99.90
11934;DHT22;6026;48.784;9.198;2023-03-01T07:05:17;1.40;99.90
11934;DHT22;6026;48.784;9.198;2023-03-01T07:07:43;1.50;99.90
11934;DHT22;6026;48.784;9.198;2023-03-01T07:10:09;1.70;99.90
11934;DHT22;6026;48.784;9.198;2023-03-01T07:12:35;1.90;99.90
11934;DHT22;6026;48.784;9.198;2023-03-01T07:15:01;2.10;99.90
11934;DHT22;6026;48.784;9.198;2023-03-01T07:17:26;2.30;99.90
11934;DHT22;6026;48.784;9.198;2023-03-01T07:19:52;2.50;99.90
11934;DHT22;6026;48.784;9.198;2023-03-01T07:22:17;2.60;99.90
11934;DHT22;6026;48.784;9.198;2023-03-01T07:24:43;2.70;99.90
11934;DHT22;6026;48.784;9.198;2023-03-01T07:27:09;2.70;99.90
11934;DHT22;6026;48.784;9.198;2023-03-01T07:29:35;2.70;99.90
11934;DHT22;6026;48.784;9.198;2023-03-01T07:32:02;2.90;99.90
11934;DHT22;6026;48.784;9.198;2023-03-01T07:34:28;3.00;99.90
11934;DHT22;6026;48.784;9.198;2023-03-01T07:36:54;3.10;99.90
11934;DHT22;6026;48.784;9.198;2023-03-01T07:39:19;3.30;99.90
11934;DHT22;6026;48.784;9.198;2023-03-01T07:41:45;3.50;99.90
11934;DHT22;6026;48.784;9.198;2023-03-01T07:44:10;3.50;99.90
11934;DHT22;6026;48.784;9.198;2023-03-01T07:46:36;3.60;99.90
11934;DHT22;6026;48.784;9.198;2023-03-01T07:49:02;3.80;99.90
11934;DHT22;6026;48.784;9.198;2023-03-01T07:51:27;4.10;99.90
11934;DHT22;6026;48.784;9.198;2023-03-01T07:53:53;4.30;99.90
11934;DHT22;6026;48.784;9.198;2023-03-01T07:56:18;4.50;99.90
11934;DHT22;6026;48.784;9.198;2023-03-01T07:58:45;4.60;99.90
11934;DHT22;6026;48.784;9.198;2023-03-01T08:01:13;4.70;99.90
11934;DHT22;6026;48.784;9.198;2023-03-01T08:03:39;4.80;99.90
11934;DHT22;6026;48.784;9.198;2023-03-01T08:06:08;5.10;99.90
11934;DHT22;6026;48.784;9.198;2023-03-01T08:08:35;5.30;99.90
11934;DHT22;6026;48.784;9.198;2023-03-01T08:11:02;5.10;99.90
11934;DHT22;6026;48.784;9.198;2023-03-01T08:13:28;5.30;99.90
11934;DHT22;6026;48.784;9.198;2023-03-01T08:15:53;5.50;99.90
11934;DHT22;6026;48.784;9.198;2023-03-01T08:18:20;5.70;99.90
11934;DHT22;6026;48.784;9.198;2023-03-01T08:20:46;5.80;99.90
11934;DHT22;6026;48.784;9.198;2023-03-01T08:23:12;6.10;99.90
11934;DHT22;6026;48.784;9.198;2023-03-01T08:25:38;6.20;99.90
11934;DHT22;6026;48.784;9.198;2023-03-01T08:28:05;6.20;99.90
11934;DHT22;6026;48.784;9.198;2023-03-01T08:30:31;6.40;99.90
11934;DHT22;6026;48.784;9.198;2023-03-01T08:32:57;6.40;99.90
11934;DHT22;6026;48.784;9.198;2023-03-01T08:35:23;6.40;99.90
11934;DHT22;6026;48.784;9.198;2023-03-01T08:37:48;6.60;99.90
11934;DHT22;6026;48.784;9.198;2023-03-01T08:40:14;6.90;99.90
11934;DHT22;6026;48.784;9.198;2023-03-01T08:42:41;6.90;99.90
11934;DHT22;6026;48.784;9.198;2023-03-01T08:45:09;6.90;99.90
11934;DHT22;6026;48.784;9.198;2023-03-01T08:47:35;6.90;99.90
11934;DHT22;6026;48.784;9.198;2023-03-01T08:50:01;7.10;99.90
11934;DHT22;6026;48.784;9.198;2023-03-01T08:52:29;7.30;99.90
11934;DHT22;6026;48.784;9.198;2023-03-01T08:54:55;7.30;99.90
11934;DHT22;6026;48.784;9.198;2023-03-01T08:57:26;7.40;99.90
11934;DHT22;6026;48.784;9.198;2023-03-01T08:59:52;7.20;99.90
11934;DHT22;6026;48.784;9.198;2023-03-01T09:02:18;7.50;99.90
11934;DHT22;6026;48.784;9.198;2023-03-01T09:04:44;7.30;99.90
11934;DHT22;6026;48.784;9.198;2023-03-01T09:07:10;7.70;99.90
11934;DHT22;6026;48.784;9.198;2023-03-01T09:09:36;8.20;99.90
11934;DHT22;6026;48.784;9.198;2023-03-01T09:12:02;8.20;99.90
11934;DHT22;6026;48.784;9.198;2023-03-01T09:14:28;8.30;99.90
11934;DHT22;6026;48.784;9.198;2023-03-01T09:16:54;8.50;99.90
11934;DHT22;6026;48.784;9.198;2023-03-01T09:19:22;8.70;99.90
11934;DHT22;6026;48.784;9.198;2023-03-01T09:21:48;8.80;99.90
11934;DHT22;6026;48.784;9.198;2023-03-01T09:24:22;9.00;99.90
11934;DHT22;6026;48.784;9.198;2023-03-01T09:26:49;9.20;99.90
11934;DHT22;6026;48.784;9.198;2023-03-01T09:29:16;9.20;99.90
11934;DHT22;6026;48.784;9.198;2023-03-01T09:31:42;9.20;99.90
11934;DHT22;6026;48.784;9.198;2023-03-01T09:34:09;9.50;99.90
11934;DHT22;6026;48.784;9.198;2023-03-01T09:36:35;9.80;99.90
11934;DHT22;6026;48.784;9.198;2023-03-01T09:39:04;9.90;99.90
11934;DHT22;6026;48.784;9.198;2023-03-01T09:42:04;9.80;99.90
11934;DHT22;6026;48.784;9.198;2023-03-01T09:44:44;10.10;99.90
11934;DHT22;6026;48.784;9.198;2023-03-01T09:47:40;10.20;99.90
11934;DHT22;6026;48.784;9.198;2023-03-01T09:50:11;10.20;99.90
11934;DHT22;6026;48.784;9.198;2023-03-01T09:55:41;10.30;99.90
11934;DHT22;6026;48.784;9.198;2023-03-01T10:01:29;10.30;99.90
11934;DHT22;6026;48.784;9.198;2023-03-01T10:06:59;10.60;99.90
11934;DHT22;6026;48.784;9.198;2023-03-01T10:09:32;10.50;99.90
11934;DHT22;6026;48.784;9.198;2023-03-01T10:12:00;10.60;99.90
11934;DHT22;6026;48.784;9.198;2023-03-01T10:14:38;10.80;99.90
11934;DHT22;6026;48.784;9.198;2023-03-01T10:17:15;10.90;99.90
11934;DHT22;6026;48.784;9.198;2023-03-01T10:19:45;11.20;99.90
11934;DHT22;6026;48.784;9.198;2023-03-01T10:22:20;10.30;99.90
11934;DHT22;6026;48.784;9.198;2023-03-01T10:24:50;11.00;99.90
11934;DHT22;6026;48.784;9.198;2023-03-01T10:27:22;11.10;99.90
11934;DHT22;6026;48.784;9.198;2023-03-01T10:32:32;10.90;99.90
11934;DHT22;6026;48.784;9.198;2023-03-01T10:34:58;11.40;99.90
11934;DHT22;6026;48.784;9.198;2023-03-01T10:37:24;11.30;99.90
11934;DHT22;6026;48.784;9.198;2023-03-01T10:40:02;11.30;99.90
11934;DHT22;6026;48.784;9.198;2023-03-01T10:42:38;11.60;99.90
11934;DHT22;6026;48.784;9.198;2023-03-01T10:48:13;11.50;99.90
11934;DHT22;6026;48.784;9.198;2023-03-01T10:50:44;11.50;99.90
11934;DHT22;6026;48.784;9.198;2023-03-01T10:53:33;11.60;99.90
11934;DHT22;6026;48.784;9.198;2023-03-01T10:56:13;12.00;99.90
11934;DHT22;6026;48.784;9.198;2023-03-01T10:58:40;11.80;99.90
11934;DHT22;6026;48.784;9.198;2023-03-01T11:01:26;12.20;99.90
11934;DHT22;6026;48.784;9.198;2023-03-01T11:06:34;12.40;99.90
11934;DHT22;6026;48.784;9.198;2023-03-01T11:09:21;12.90;99.90
11934;DHT22;6026;48.784;9.198;2023-03-01T11:11:55;13.30;99.90
11934;DHT22;6026;48.784;9.198;2023-03-01T11:14:22;13.50;99.90
11934;DHT22;6026;48.784;9.198;2023-03-01T11:17:01;12.90;99.90
11934;DHT22;6026;48.784;9.198;2023-03-01T11:19:27;12.50;99.90
11934;DHT22;6026;48.784;9.198;2023-03-01T11:22:22;12.90;99.90
11934;DHT22;6026;48.784;9.198;2023-03-01T11:24:54;13.30;99.90
11934;DHT22;6026;48.784;9.198;2023-03-01T11:27:46;13.30;99.50
11934;DHT22;6026;48.784;9.198;2023-03-01T11:33:04;12.80;99.80
11934;DHT22;6026;48.784;9.198;2023-03-01T11:35:32;12.80;99.90
11934;DHT22;6026;48.784;9.198;2023-03-01T11:40:44;13.30;99.60
11934;DHT22;6026;48.784;9.198;2023-03-01T12:00:37;14.20;98.60
11934;DHT22;6026;48.784;9.198;2023-03-01T12:09:00;14.60;97.60
11934;DHT22;6026;48.784;9.198;2023-03-01T12:27:54;14.20;97.50
11934;DHT22;6026;48.784;9.198;2023-03-01T12:41:23;14.20;97.10
11934;DHT22;6026;48.784;9.198;2023-03-01T12:44:12;14.30;97.10
11934;DHT22;6026;48.784;9.198;2023-03-01T12:49:19;14.40;97.70
11934;DHT22;6026;48.784;9.198;2023-03-01T12:54:40;14.70;96.90
11934;DHT22;6026;48.784;9.198;2023-03-01T13:02:30;14.70;97.10
11934;DHT22;6026;48.784;9.198;2023-03-01T13:05:18;14.70;97.00
11934;DHT22;6026;48.784;9.198;2023-03-01T13:07:58;13.90;97.40
11934;DHT22;6026;48.784;9.198;2023-03-01T13:13:28;14.80;96.80
11934;DHT22;6026;48.784;9.198;2023-03-01T13:15:55;14.40;97.10
11934;DHT22;6026;48.784;9.198;2023-03-01T13:20:52;14.60;96.80
11934;DHT22;6026;48.784;9.198;2023-03-01T13:23:35;14.60;97.00
11934;DHT22;6026;48.784;9.198;2023-03-01T13:26:17;14.50;97.10
11934;DHT22;6026;48.784;9.198;2023-03-01T13:28:48;14.30;96.90
11934;DHT22;6026;48.784;9.198;2023-03-01T13:33:52;14.80;96.60
11934;DHT22;6026;48.784;9.198;2023-03-01T13:46:47;14.90;96.60
11934;DHT22;6026;48.784;9.198;2023-03-01T13:49:23;14.60;96.50
11934;DHT22;6026;48.784;9.198;2023-03-01T13:51:51;14.70;96.80
11934;DHT22;6026;48.784;9.198;2023-03-01T13:54:29;14.60;96.70
11934;DHT22;6026;48.784;9.198;2023-03-01T13:56:57;14.30;96.90
11934;DHT22;6026;48.784;9.198;2023-03-01T13:59:23;14.40;96.90
11934;DHT22;6026;48.784;9.198;2023-03-01T14:01:59;14.40;97.00
11934;DHT22;6026;48.784;9.198;2023-03-01T14:04:29;14.30;97.00
11934;DHT22;6026;48.784;9.198;2023-03-01T14:07:32;14.20;97.40
11934;DHT22;6026;48.784;9.198;2023-03-01T14:10:01;14.10;97.40
11934;DHT22;6026;48.784;9.198;2023-03-01T14:15:04;14.00;98.00
11934;DHT22;6026;48.784;9.198;2023-03-01T14:17:37;13.40;97.60
11934;DHT22;6026;48.784;9.198;2023-03-01T14:20:22;13.60;97.60
11934;DHT22;6026;48.784;9.198;2023-03-01T14:22:50;13.60;98.10
11934;DHT22;6026;48.784;9.198;2023-03-01T14:25:31;13.40;98.00
11934;DHT22;6026;48.784;9.198;2023-03-01T14:28:17;13.20;98.20
11934;DHT22;6026;48.784;9.198;2023-03-01T14:30:49;12.90;98.70
11934;DHT22;6026;48.784;9.198;2023-03-01T14:33:28;12.80;98.80
11934;DHT22;6026;48.784;9.198;2023-03-01T14:36:05;12.80;98.90
11934;DHT22;6026;48.784;9.198;2023-03-01T14:43:32;12.70;98.90
11934;DHT22;6026;48.784;9.198;2023-03-01T14:45:58;12.50;99.20
11934;DHT22;6026;48.784;9.198;2023-03-01T14:48:24;12.50;99.30
11934;DHT22;6026;48.784;9.198;2023-03-01T14:50:50;12.50;99.40
11934;DHT22;6026;48.784;9.198;2023-03-01T14:53:22;12.60;99.50
11934;DHT22;6026;48.784;9.198;2023-03-01T14:55:55;12.50;98.90
11934;DHT22;6026;48.784;9.198;2023-03-01T14:58:23;12.20;99.10
11934;DHT22;6026;48.784;9.198;2023-03-01T15:00:57;12.20;99.40
11934;DHT22;6026;48.784;9.198;2023-03-01T15:03:46;12.20;99.60
11934;DHT22;6026;48.784;9.198;2023-03-01T15:06:17;12.30;99.70
11934;DHT22;6026;48.784;9.198;2023-03-01T15:08:47;12.10;99.60
11934;DHT22;6026;48.784;9.198;2023-03-01T15:11:29;11.90;99.70
11934;DHT22;6026;48.784;9.198;2023-03-01T15:13:55;11.70;99.90
11934;DHT22;6026;48.784;9.198;2023-03-01T15:16:32;11.30;99.90
11934;DHT22;6026;48.784;9.198;2023-03-01T15:19:00;11.40;99.90
11934;DHT22;6026;48.784;9.198;2023-03-01T15:21:32;11.10;99.90
11934;DHT22;6026;48.784;9.198;2023-03-01T15:26:57;11.00;99.90
11934;DHT22;6026;48.784;9.198;2023-03-01T15:29:29;10.60;99.90
11934;DHT22;6026;48.784;9.198;2023-03-01T15:34:25;10.60;99.90
11934;DHT22;6026;48.784;9.198;2023-03-01T15:36:53;10.60;99.90
11934;DHT22;6026;48.784;9.198;2023-03-01T15:39:55;10.50;99.90
11934;DHT22;6026;48.784;9.198;2023-03-01T15:45:19;10.30;99.90
11934;DHT22;6026;48.784;9.198;2023-03-01T15:47:50;10.40;99.90
11934;DHT22;6026;48.784;9.198;2023-03-01T15:50:22;10.30;99.90
11934;DHT22;6026;48.784;9.198;2023-03-01T15:52:49;9.80;99.90
11934;DHT22;6026;48.784;9.198;2023-03-01T15:55:20;9.70;99.90
11934;DHT22;6026;48.784;9.198;2023-03-01T15:57:46;9.60;99.90
11934;DHT22;6026;48.784;9.198;2023-03-01T16:00:13;9.20;99.90
11934;DHT22;6026;48.784;9.198;2023-03-01T16:02:42;9.20;99.90
11934;DHT22;6026;48.784;9.198;2023-03-01T16:07:46;8.80;99.90
11934;DHT22;6026;48.784;9.198;2023-03-01T16:10:11;8.60;99.90
11934;DHT22;6026;48.784;9.198;2023-03-01T16:12:37;8.60;99.90
11934;DHT22;6026;48.784;9.198;2023-03-01T16:15:07;8.50;99.90
11934;DHT22;6026;48.784;9.198;2023-03-01T16:17:37;8.20;99.90
11934;DHT22;6026;48.784;9.198;2023-03-01T16:20:03;8.10;99.90
11934;DHT22;6026;48.784;9.198;2023-03-01T16:22:29;8.00;99.90
11934;DHT22;6026;48.784;9.198;2023-03-01T16:24:55;7.80;99.90
11934;DHT22;6026;48.784;9.198;2023-03-01T16:27:20;7.70;99.90
11934;DHT22;6026;48.784;9.198;2023-03-01T16:29:46;7.70;99.90
11934;DHT22;6026;48.784;9.198;2023-03-01T16:32:11;7.50;99.90
11934;DHT22;6026;48.784;9.198;2023-03-01T16:34:37;7.40;99.90
11934;DHT22;6026;48.784;9.198;2023-03-01T16:37:02;7.30;99.90
11934;DHT22;6026;48.784;9.198;2023-03-01T16:39:28;7.30;99.90
11934;DHT22;6026;48.784;9.198;2023-03-01T16:41:54;7.20;99.90
11934;DHT22;6026;48.784;9.198;2023-03-01T16:44:19;7.10;99.90
11934;DHT22;6026;48.784;9.198;2023-03-01T16:46:45;7.20;99.90
11934;DHT22;6026;48.784;9.198;2023-03-01T16:49:10;7.10;99.90
11934;DHT22;6026;48.784;9.198;2023-03-01T16:51:36;7.00;99.90
11934;DHT22;6026;48.784;9.198;2023-03-01T16:54:02;7.00;99.90
11934;DHT22;6026;48.784;9.198;2023-03-01T16:56:29;6.90;99.90
11934;DHT22;6026;48.784;9.198;2023-03-01T16:58:56;6.90;99.90
11934;DHT22;6026;48.784;9.198;2023-03-01T17:01:22;6.80;99.90
11934;DHT22;6026;48.784;9.198;2023-03-01T17:03:51;6.80;99.90
11934;DHT22;6026;48.784;9.198;2023-03-01T17:06:20;6.70;99.90
11934;DHT22;6026;48.784;9.198;2023-03-01T17:08:46;6.70;99.90
11934;DHT22;6026;48.784;9.198;2023-03-01T17:11:17;6.70;99.90
11934;DHT22;6026;48.784;9.198;2023-03-01T17:13:44;6.70;99.90
11934;DHT22;6026;48.784;9.198;2023-03-01T17:16:12;6.70;99.90
11934;DHT22;6026;48.784;9.198;2023-03-01T17:18:38;6.60;99.90
11934;DHT22;6026;48.784;9.198;2023-03-01T17:21:05;6.50;99.90
11934;DHT22;6026;48.784;9.198;2023-03-01T17:23:32;6.40;99.90
11934;DHT22;6026;48.784;9.198;2023-03-01T17:25:59;6.30;99.90
11934;DHT22;6026;48.784;9.198;2023-03-01T17:28:27;6.30;99.90
11934;DHT22;6026;48.784;9.198;2023-03-01T17:30:53;6.40;99.90
11934;DHT22;6026;48.784;9.198;2023-03-01T17:33:20;6.30;99.90
11934;DHT22;6026;48.784;9.198;2023-03-01T17:35:46;6.20;99.90
11934;DHT22;6026;48.784;9.198;2023-03-01T17:38:15;6.20;99.90
11934;DHT22;6026;48.784;9.198;2023-03-01T17:40:42;6.10;99.90
11934;DHT22;6026;48.784;9.198;2023-03-01T17:43:10;6.00;99.90
11934;DHT22;6026;48.784;9.198;2023-03-01T17:45:37;5.90;99.90
11934;DHT22;6026;48.784;9.198;2023-03-01T17:48:03;5.90;99.90
11934;DHT22;6026;48.784;9.198;2023-03-01T17:50:29;5.90;99.90
11934;DHT22;6026;48.784;9.198;2023-03-01T17:52:55;5.90;99.90
11934;DHT22;6026;48.784;9.198;2023-03-01T17:55:21;5.90;99.90
11934;DHT22;6026;48.784;9.198;2023-03-01T17:57:47;5.80;99.90
11934;DHT22;6026;48.784;9.198;2023-03-01T18:00:13;5.70;99.90
11934;DHT22;6026;48.784;9.198;2023-03-01T18:02:40;5.70;99.90
11934;DHT22;6026;48.784;9.198;2023-03-01T18:05:06;5.60;99.90
11934;DHT22;6026;48.784;9.198;2023-03-01T18:07:32;5.60;99.90
11934;DHT22;6026;48.784;9.198;2023-03-01T18:09:57;5.60;99.90
11934;DHT22;6026;48.784;9.198;2023-03-01T18:12:23;5.50;99.90
11934;DHT22;6026;48.784;9.198;2023-03-01T18:14:49;5.50;99.90
11934;DHT22;6026;48.784;9.198;2023-03-01T18:17:22;5.50;99.90
11934;DHT22;6026;48.784;9.198;2023-03-01T18:19:48;5.40;99.90
11934;DHT22;6026;48.784;9.198;2023-03-01T18:22:14;5.30;99.90